Time;durP1;ratioP1;P1;durP2;ratioP2;P2;SDS_P1;SDS_P2;PMS_P1;PMS_P2;Temp;Humidity;BMP_temperature;BMP_pressure;BME280_temperature;BME280_humidity;BME280_pressure;Samples;Min_cycle;Max_cycle;Signal;HPM_P1;HPM_P2
2022/01/04 00:02:21;;;;;;;;;;;13.60;58.50;;;;;;5082238;28;19965;-70
2022/01/04 00:04:46;;;;;;;;;;;13.60;58.30;;;;;;5100334;28;19916;-70
2022/01/04 00:07:12;;;;;;;;;;;13.60;58.30;;;;;;5100256;28;19971;-70
2022/01/04 00:09:41;;;;;;;;;;;13.60;58.20;;;;;;5100285;28;19931;-70
2022/01/04 00:14:55;;;;;;;;;;;13.60;58.20;;;;;;5100048;28;19923;-70
2022/01/04 00:17:21;;;;;;;;;;;13.60;58.10;;;;;;5100130;28;19915;-70
2022/01/04 00:19:46;;;;;;;;;;;13.60;58.10;;;;;;5100144;28;19908;-70
2022/01/04 00:22:12;;;;;;;;;;;13.60;58.10;;;;;;5099364;28;19967;-70
2022/01/04 00:24:37;;;;;;;;;;;13.60;58.00;;;;;;5100117;28;20188;-70
2022/01/04 00:27:03;;;;;;;;;;;13.60;58.00;;;;;;5100055;28;19915;-70
2022/01/04 00:29:29;;;;;;;;;;;13.60;58.20;;;;;;5100064;28;19908;-69
2022/01/04 00:31:54;;;;;;;;;;;13.50;58.30;;;;;;5100063;28;19908;-70
2022/01/04 00:34:20;;;;;;;;;;;13.50;58.50;;;;;;5099947;28;19957;-70
2022/01/04 00:36:45;;;;;;;;;;;13.50;58.50;;;;;;5100033;28;19908;-70
2022/01/04 00:39:11;;;;;;;;;;;13.50;58.60;;;;;;5099876;28;19915;-70
2022/01/04 00:41:37;;;;;;;;;;;13.50;58.70;;;;;;5100008;28;19910;-70
2022/01/04 00:44:02;;;;;;;;;;;13.50;58.60;;;;;;5099896;28;19971;-70
2022/01/04 00:46:28;;;;;;;;;;;13.50;58.50;;;;;;5099919;28;19900;-71
2022/01/04 00:49:10;;;;;;;;;;;13.50;58.40;;;;;;5099839;28;19908;-71
2022/01/04 00:51:42;;;;;;;;;;;13.60;58.40;;;;;;5099984;28;19915;-70
2022/01/04 00:54:08;;;;;;;;;;;13.60;58.40;;;;;;5081627;28;19911;-70
2022/01/04 00:56:34;;;;;;;;;;;13.60;58.30;;;;;;5099795;28;19915;-69
2022/01/04 00:59:00;;;;;;;;;;;13.60;58.10;;;;;;5100352;28;19908;-70
2022/01/04 01:01:25;;;;;;;;;;;13.60;58.20;;;;;;5099769;28;19915;-70
2022/01/04 01:03:51;;;;;;;;;;;13.60;58.20;;;;;;5099749;28;19938;-70
2022/01/04 01:06:17;;;;;;;;;;;13.60;58.20;;;;;;5099754;28;19917;-69
2022/01/04 01:08:43;;;;;;;;;;;13.60;58.20;;;;;;5099611;28;20005;-70
2022/01/04 01:11:09;;;;;;;;;;;13.60;58.20;;;;;;5099703;28;19912;-71
2022/01/04 01:13:35;;;;;;;;;;;13.60;58.30;;;;;;5099637;28;19951;-71
2022/01/04 01:16:01;;;;;;;;;;;13.60;58.30;;;;;;5099633;28;19908;-70
2022/01/04 01:18:26;;;;;;;;;;;13.60;58.40;;;;;;5099677;28;19908;-70
2022/01/04 01:20:52;;;;;;;;;;;13.60;59.10;;;;;;5099621;28;20108;-70
2022/01/04 01:23:18;;;;;;;;;;;13.60;58.40;;;;;;5099560;28;19900;-70
2022/01/04 01:25:44;;;;;;;;;;;13.60;58.40;;;;;;5099551;28;19908;-70
2022/01/04 01:28:10;;;;;;;;;;;13.60;58.40;;;;;;5099615;28;19978;-70
2022/01/04 01:30:38;;;;;;;;;;;13.60;58.30;;;;;;5099532;28;19908;-70
2022/01/04 01:33:04;;;;;;;;;;;13.60;58.30;;;;;;5099446;28;19908;-70
2022/01/04 01:35:30;;;;;;;;;;;13.60;58.20;;;;;;5103092;28;19908;-70
2022/01/04 01:37:57;;;;;;;;;;;13.60;58.20;;;;;;5103199;28;19900;-70
2022/01/04 01:40:23;;;;;;;;;;;13.60;58.10;;;;;;5103107;28;19900;-70
2022/01/04 01:42:49;;;;;;;;;;;13.60;58.10;;;;;;5103068;28;19915;-70
2022/01/04 01:45:16;;;;;;;;;;;13.60;58.10;;;;;;5103009;28;19907;-70
2022/01/04 01:47:42;;;;;;;;;;;13.60;58.20;;;;;;5102904;28;19907;-70
2022/01/04 01:50:09;;;;;;;;;;;13.60;58.20;;;;;;5084836;28;19931;-70
2022/01/04 01:52:35;;;;;;;;;;;13.60;58.30;;;;;;5102855;28;19908;-70
2022/01/04 01:55:01;;;;;;;;;;;13.60;58.30;;;;;;5102743;28;19951;-69
2022/01/04 01:57:26;;;;;;;;;;;13.60;58.40;;;;;;5102790;28;19908;-70
2022/01/04 01:59:52;;;;;;;;;;;13.60;58.30;;;;;;5102666;28;19907;-70
2022/01/04 02:02:18;;;;;;;;;;;13.60;58.30;;;;;;5102709;28;19945;-70
2022/01/04 02:04:43;;;;;;;;;;;13.60;58.20;;;;;;5084480;28;20135;-70
2022/01/04 02:07:10;;;;;;;;;;;13.60;58.20;;;;;;5102623;28;19908;-70
2022/01/04 02:09:39;;;;;;;;;;;13.60;58.20;;;;;;5102324;28;19975;-70
2022/01/04 02:12:05;;;;;;;;;;;13.60;58.10;;;;;;5102529;28;20204;-71
2022/01/04 02:14:31;;;;;;;;;;;13.60;58.20;;;;;;5102359;28;19919;-70
2022/01/04 02:16:57;;;;;;;;;;;13.50;58.30;;;;;;5102477;28;20199;-70
2022/01/04 02:19:23;;;;;;;;;;;13.50;58.40;;;;;;5084191;28;19900;-70
2022/01/04 02:21:48;;;;;;;;;;;13.50;58.30;;;;;;5084155;28;19915;-70
2022/01/04 02:24:14;;;;;;;;;;;13.50;58.30;;;;;;5102187;28;19907;-70
2022/01/04 02:26:40;;;;;;;;;;;13.60;58.20;;;;;;5102215;28;19907;-70
2022/01/04 02:29:07;;;;;;;;;;;13.60;58.30;;;;;;5102203;28;20242;-70
2022/01/04 02:31:33;;;;;;;;;;;13.60;58.30;;;;;;5102120;28;20217;-70
2022/01/04 02:33:59;;;;;;;;;;;13.50;58.30;;;;;;5083844;28;19919;-70
2022/01/04 02:36:24;;;;;;;;;;;13.60;58.40;;;;;;5102055;28;20021;-69
2022/01/04 02:38:51;;;;;;;;;;;13.60;58.30;;;;;;5083816;28;19915;-70
2022/01/04 02:41:16;;;;;;;;;;;13.60;58.20;;;;;;5101997;28;19899;-70
2022/01/04 02:43:42;;;;;;;;;;;13.60;58.30;;;;;;5101810;28;19908;-70
2022/01/04 02:46:07;;;;;;;;;;;13.60;58.30;;;;;;5101109;28;19907;-70
2022/01/04 02:48:39;;;;;;;;;;;13.60;58.30;;;;;;5101905;28;19908;-70
2022/01/04 02:51:05;;;;;;;;;;;13.60;58.30;;;;;;5101750;28;19915;-70
2022/01/04 02:53:30;;;;;;;;;;;13.50;58.80;;;;;;5101649;28;19912;-72
2022/01/04 02:55:56;;;;;;;;;;;13.50;58.30;;;;;;5101601;28;19900;-69
2022/01/04 02:58:21;;;;;;;;;;;13.50;58.50;;;;;;5083313;28;19912;-69
2022/01/04 03:00:47;;;;;;;;;;;13.40;58.60;;;;;;5101491;28;20133;-70
2022/01/04 03:03:13;;;;;;;;;;;13.40;58.60;;;;;;5101379;28;19900;-70
2022/01/04 03:05:38;;;;;;;;;;;13.40;58.70;;;;;;5101450;28;19908;-70
2022/01/04 03:08:04;;;;;;;;;;;13.50;58.70;;;;;;5101191;28;19942;-70
2022/01/04 03:10:29;;;;;;;;;;;13.50;58.60;;;;;;5101567;28;19908;-69
2022/01/04 03:12:55;;;;;;;;;;;13.50;58.50;;;;;;5083109;28;19949;-69
2022/01/04 03:15:21;;;;;;;;;;;13.50;58.40;;;;;;5101123;28;19955;-70
2022/01/04 03:17:46;;;;;;;;;;;13.60;58.40;;;;;;5101200;28;19908;-69
2022/01/04 03:20:12;;;;;;;;;;;13.60;58.40;;;;;;5101160;28;19931;-70
2022/01/04 03:22:37;;;;;;;;;;;13.60;58.40;;;;;;5101061;28;19933;-71
2022/01/04 03:25:04;;;;;;;;;;;13.60;58.30;;;;;;5101089;28;19908;-69
2022/01/04 03:27:29;;;;;;;;;;;13.60;58.30;;;;;;5100963;28;19982;-70
2022/01/04 03:29:55;;;;;;;;;;;13.50;58.10;;;;;;5100942;28;19915;-70
2022/01/04 03:32:21;;;;;;;;;;;13.50;58.30;;;;;;5082634;28;20297;-69
2022/01/04 03:34:46;;;;;;;;;;;13.50;58.40;;;;;;5100740;28;19912;-70
2022/01/04 03:37:12;;;;;;;;;;;13.50;58.50;;;;;;5100733;28;19908;-70
2022/01/04 03:39:37;;;;;;;;;;;13.40;58.50;;;;;;5100691;28;20100;-70
2022/01/04 03:42:03;;;;;;;;;;;13.50;58.60;;;;;;5100695;28;20169;-70
2022/01/04 03:44:29;;;;;;;;;;;13.50;58.50;;;;;;5100637;28;19923;-70
2022/01/04 03:46:55;;;;;;;;;;;13.50;58.50;;;;;;5100568;28;19908;-70
2022/01/04 03:49:21;;;;;;;;;;;13.40;58.40;;;;;;5082332;28;19945;-70
2022/01/04 03:51:47;;;;;;;;;;;13.50;58.30;;;;;;5100649;28;20375;-71
2022/01/04 03:54:12;;;;;;;;;;;13.60;58.20;;;;;;5100271;28;19944;-70
2022/01/04 03:56:38;;;;;;;;;;;13.60;58.30;;;;;;5100415;28;19911;-70
2022/01/04 03:59:04;;;;;;;;;;;13.60;58.30;;;;;;5082151;28;19920;-70
2022/01/04 04:01:29;;;;;;;;;;;13.60;58.40;;;;;;5100357;28;19979;-70
2022/01/04 04:03:55;;;;;;;;;;;13.60;58.40;;;;;;5100378;28;19915;-70
2022/01/04 04:06:21;;;;;;;;;;;13.60;58.30;;;;;;5100160;28;19907;-70
2022/01/04 04:08:46;;;;;;;;;;;13.60;58.30;;;;;;5100101;28;19923;-70
2022/01/04 04:11:12;;;;;;;;;;;13.60;58.20;;;;;;5081978;28;19908;-70
2022/01/04 04:13:37;;;;;;;;;;;13.60;58.30;;;;;;5100140;28;19908;-70
2022/01/04 04:16:03;;;;;;;;;;;13.50;58.30;;;;;;5100038;28;19982;-70
2022/01/04 04:18:29;;;;;;;;;;;13.50;58.50;;;;;;5100133;28;19908;-70
2022/01/04 04:20:55;;;;;;;;;;;13.40;58.50;;;;;;5081945;28;20142;-69
2022/01/04 04:23:20;;;;;;;;;;;13.50;58.60;;;;;;5100091;28;19908;-69
2022/01/04 04:25:46;;;;;;;;;;;13.50;58.40;;;;;;5100081;28;19900;-70
2022/01/04 04:28:12;;;;;;;;;;;13.50;58.20;;;;;;5081755;28;19961;-70
2022/01/04 04:30:37;;;;;;;;;;;13.60;58.30;;;;;;5099968;28;19900;-70
2022/01/04 04:33:03;;;;;;;;;;;13.60;58.10;;;;;;5099824;28;19969;-70
2022/01/04 04:35:30;;;;;;;;;;;13.60;58.10;;;;;;5099851;28;19907;-70
2022/01/04 04:37:57;;;;;;;;;;;13.50;58.10;;;;;;5100171;28;19908;-70
2022/01/04 04:40:22;;;;;;;;;;;13.50;58.30;;;;;;5099822;28;19908;-70
2022/01/04 04:42:48;;;;;;;;;;;13.50;58.50;;;;;;5099861;28;19908;-70
2022/01/04 04:45:13;;;;;;;;;;;13.50;58.60;;;;;;5081661;28;19908;-69
2022/01/04 04:47:39;;;;;;;;;;;13.50;58.50;;;;;;5099799;28;19908;-69
2022/01/04 04:50:05;;;;;;;;;;;13.50;58.40;;;;;;5099759;28;19919;-70
2022/01/04 04:52:31;;;;;;;;;;;13.50;58.30;;;;;;5099630;28;19912;-69
2022/01/04 04:54:56;;;;;;;;;;;13.60;58.30;;;;;;5081499;28;20135;-70
2022/01/04 04:57:22;;;;;;;;;;;13.50;58.30;;;;;;5099671;28;19907;-71
2022/01/04 04:59:47;;;;;;;;;;;13.40;58.40;;;;;;5099688;28;19904;-70
2022/01/04 05:02:13;;;;;;;;;;;13.40;58.60;;;;;;5099634;28;20230;-70
2022/01/04 05:04:39;;;;;;;;;;;13.40;58.70;;;;;;5099670;28;20179;-70
2022/01/04 05:07:05;;;;;;;;;;;13.40;58.60;;;;;;5099592;28;19994;-70
2022/01/04 05:09:30;;;;;;;;;;;13.50;58.60;;;;;;5101567;28;19923;-70
2022/01/04 05:11:56;;;;;;;;;;;13.50;58.40;;;;;;5103518;28;19915;-70
2022/01/04 05:14:22;;;;;;;;;;;13.60;58.30;;;;;;5103276;28;19961;-70
2022/01/04 05:16:48;;;;;;;;;;;13.60;58.10;;;;;;5103362;28;19941;-70
2022/01/04 05:19:14;;;;;;;;;;;13.60;57.90;;;;;;5103327;28;19995;-70
2022/01/04 05:21:40;;;;;;;;;;;13.50;58.20;;;;;;5103268;28;20159;-70
2022/01/04 05:24:06;;;;;;;;;;;13.50;58.40;;;;;;5084945;28;19914;-70
2022/01/04 05:26:33;;;;;;;;;;;13.40;58.60;;;;;;5103184;28;19907;-70
2022/01/04 05:28:59;;;;;;;;;;;13.40;58.70;;;;;;5103213;28;19907;-70
2022/01/04 05:31:24;;;;;;;;;;;13.40;58.80;;;;;;5084950;28;19908;-70
2022/01/04 05:33:50;;;;;;;;;;;13.50;58.70;;;;;;5084783;28;19919;-71
2022/01/04 05:36:15;;;;;;;;;;;13.50;58.50;;;;;;5103029;28;19908;-71
2022/01/04 05:38:41;;;;;;;;;;;13.50;58.50;;;;;;5102938;28;19900;-70
2022/01/04 05:41:06;;;;;;;;;;;13.40;58.60;;;;;;5103003;28;19912;-71
2022/01/04 05:43:32;;;;;;;;;;;13.40;58.70;;;;;;5084609;28;19907;-70
2022/01/04 05:45:58;;;;;;;;;;;13.30;58.70;;;;;;5084676;28;19967;-70
2022/01/04 05:48:24;;;;;;;;;;;13.30;58.70;;;;;;5102782;28;20108;-70
2022/01/04 05:50:50;;;;;;;;;;;13.30;58.70;;;;;;5084538;28;19973;-71
2022/01/04 05:53:15;;;;;;;;;;;13.40;58.70;;;;;;5102692;28;20135;-70
2022/01/04 05:55:41;;;;;;;;;;;13.40;58.50;;;;;;5102690;28;19900;-70
2022/01/04 05:58:07;;;;;;;;;;;13.40;58.60;;;;;;5084396;28;19947;-69
2022/01/04 06:00:32;;;;;;;;;;;13.40;58.50;;;;;;5102517;28;20100;-71
2022/01/04 06:03:01;;;;;;;;;;;13.40;58.50;;;;;;5102608;28;19915;-70
2022/01/04 06:05:27;;;;;;;;;;;13.40;58.50;;;;;;5084277;28;20224;-71
2022/01/04 06:07:53;;;;;;;;;;;13.40;58.60;;;;;;5102210;28;20104;-69
2022/01/04 06:10:18;;;;;;;;;;;13.30;58.60;;;;;;5102423;28;19908;-70
2022/01/04 06:15:11;;;;;;;;;;;13.30;58.80;;;;;;5102485;28;19923;-69
2022/01/04 06:17:36;;;;;;;;;;;13.30;58.70;;;;;;5102214;28;19907;-70
2022/01/04 06:20:06;;;;;;;;;;;13.30;58.90;;;;;;5101341;28;20096;-70
2022/01/04 06:22:32;;;;;;;;;;;13.30;58.90;;;;;;5083861;28;19907;-70
2022/01/04 06:24:57;;;;;;;;;;;13.30;58.90;;;;;;5102130;28;19906;-70
2022/01/04 06:27:23;;;;;;;;;;;13.30;58.90;;;;;;5102031;28;19907;-70
2022/01/04 06:29:49;;;;;;;;;;;13.40;58.80;;;;;;5102031;28;19907;-70
2022/01/04 06:32:15;;;;;;;;;;;13.40;58.60;;;;;;5101892;28;19907;-70
2022/01/04 06:34:42;;;;;;;;;;;13.40;58.60;;;;;;5101866;28;19912;-70
2022/01/04 06:37:08;;;;;;;;;;;13.40;58.60;;;;;;5101905;28;19915;-70
2022/01/04 06:39:34;;;;;;;;;;;13.40;58.60;;;;;;5101783;28;19930;-70
2022/01/04 06:42:00;;;;;;;;;;;13.40;58.70;;;;;;5083657;28;20464;-70
2022/01/04 06:44:25;;;;;;;;;;;13.30;58.60;;;;;;5083501;28;19908;-69
2022/01/04 06:46:51;;;;;;;;;;;13.30;58.80;;;;;;5101614;28;20250;-70
2022/01/04 06:49:17;;;;;;;;;;;13.30;58.80;;;;;;5101568;28;19934;-70
2022/01/04 06:51:44;;;;;;;;;;;13.30;58.70;;;;;;5101513;28;19900;-70
2022/01/04 06:54:10;;;;;;;;;;;13.30;58.80;;;;;;5101473;28;19912;-70
2022/01/04 06:56:36;;;;;;;;;;;13.30;58.80;;;;;;5101489;28;19915;-70
2022/01/04 06:59:02;;;;;;;;;;;13.30;58.80;;;;;;5101388;28;19908;-70
2022/01/04 07:01:28;;;;;;;;;;;13.30;58.80;;;;;;5101318;28;19938;-70
2022/01/04 07:03:53;;;;;;;;;;;13.30;58.80;;;;;;5101378;28;19908;-69
2022/01/04 07:06:19;;;;;;;;;;;13.30;58.70;;;;;;5101335;28;19927;-69
2022/01/04 07:08:45;;;;;;;;;;;13.40;58.70;;;;;;5100938;28;19922;-69
2022/01/04 07:11:10;;;;;;;;;;;13.50;58.70;;;;;;5083001;28;19939;-70
2022/01/04 07:13:36;;;;;;;;;;;13.50;58.30;;;;;;5101072;28;19923;-70
2022/01/04 07:16:01;;;;;;;;;;;13.60;58.30;;;;;;5100991;28;19915;-71
2022/01/04 07:18:27;;;;;;;;;;;13.60;58.10;;;;;;5101087;28;20290;-70
2022/01/04 07:20:53;;;;;;;;;;;13.60;58.10;;;;;;5100940;28;19967;-70
2022/01/04 07:23:18;;;;;;;;;;;13.60;58.00;;;;;;5082667;28;19971;-70
2022/01/04 07:25:44;;;;;;;;;;;13.50;58.20;;;;;;5100869;28;19907;-70
2022/01/04 07:28:10;;;;;;;;;;;13.40;58.50;;;;;;5100801;28;20200;-70
2022/01/04 07:30:35;;;;;;;;;;;13.30;58.60;;;;;;5100801;28;19932;-71
2022/01/04 07:33:01;;;;;;;;;;;13.30;58.70;;;;;;5100492;28;19908;-70
2022/01/04 07:35:27;;;;;;;;;;;13.30;58.70;;;;;;5082494;28;19933;-70
2022/01/04 07:37:53;;;;;;;;;;;13.30;58.70;;;;;;5100669;28;20194;-69
2022/01/04 07:40:20;;;;;;;;;;;13.30;58.70;;;;;;5100716;28;19908;-70
2022/01/04 07:42:46;;;;;;;;;;;13.30;58.80;;;;;;5100602;28;20108;-69
2022/01/04 07:45:12;;;;;;;;;;;13.30;58.80;;;;;;5100560;28;19943;-71
2022/01/04 07:47:38;;;;;;;;;;;13.30;58.80;;;;;;5100493;28;19906;-70
2022/01/04 07:50:03;;;;;;;;;;;13.40;58.80;;;;;;5100414;28;19931;-70
2022/01/04 07:52:29;;;;;;;;;;;13.40;58.70;;;;;;5100445;28;19907;-70
2022/01/04 07:54:55;;;;;;;;;;;13.50;58.60;;;;;;5100323;28;20101;-71
2022/01/04 07:57:20;;;;;;;;;;;13.50;58.40;;;;;;5082017;28;20111;-71
2022/01/04 07:59:46;;;;;;;;;;;13.50;58.30;;;;;;5100267;28;19900;-70
2022/01/04 08:02:11;;;;;;;;;;;13.50;58.10;;;;;;5100106;28;19947;-70
2022/01/04 08:04:37;;;;;;;;;;;13.60;58.10;;;;;;5100314;28;20200;-71
2022/01/04 08:07:03;;;;;;;;;;;13.50;58.10;;;;;;5100163;28;19904;-70
2022/01/04 08:09:29;;;;;;;;;;;13.50;58.20;;;;;;5099947;28;20256;-70
2022/01/04 08:11:55;;;;;;;;;;;13.50;58.40;;;;;;5100459;28;19918;-70
2022/01/04 08:14:20;;;;;;;;;;;13.50;58.50;;;;;;5100019;28;19915;-70
2022/01/04 08:16:46;;;;;;;;;;;13.50;58.40;;;;;;5100013;28;19915;-70
2022/01/04 08:19:11;;;;;;;;;;;13.50;58.30;;;;;;5099976;28;20085;-71
2022/01/04 08:21:38;;;;;;;;;;;13.50;58.20;;;;;;5099941;28;19908;-70
2022/01/04 08:24:04;;;;;;;;;;;13.60;58.20;;;;;;5099930;28;19935;-70
2022/01/04 08:26:30;;;;;;;;;;;13.60;58.20;;;;;;5099935;28;20125;-70
2022/01/04 08:28:56;;;;;;;;;;;13.60;58.10;;;;;;5099925;28;20192;-71
2022/01/04 08:31:21;;;;;;;;;;;13.60;58.10;;;;;;5081685;28;19908;-71
2022/01/04 08:33:47;;;;;;;;;;;13.60;58.10;;;;;;5099806;28;19912;-72
2022/01/04 08:36:13;;;;;;;;;;;13.60;58.10;;;;;;5099891;28;19907;-71
2022/01/04 08:38:39;;;;;;;;;;;13.60;58.10;;;;;;5081646;28;19908;-70
2022/01/04 08:41:05;;;;;;;;;;;13.60;58.10;;;;;;5099801;28;19908;-71
2022/01/04 08:43:31;;;;;;;;;;;13.60;58.10;;;;;;5100356;28;20270;-70
2022/01/04 08:45:56;;;;;;;;;;;13.60;58.10;;;;;;5104348;28;19943;-71
2022/01/04 08:48:22;;;;;;;;;;;13.60;58.10;;;;;;5103943;28;19934;-71
2022/01/04 08:50:49;;;;;;;;;;;13.60;58.10;;;;;;5103903;28;19966;-71
2022/01/04 08:53:14;;;;;;;;;;;13.60;58.10;;;;;;5103797;28;19908;-70
2022/01/04 08:55:40;;;;;;;;;;;13.60;58.10;;;;;;5103756;28;20258;-71
2022/01/04 08:58:06;;;;;;;;;;;13.60;58.20;;;;;;5103817;28;19915;-70
2022/01/04 09:00:32;;;;;;;;;;;13.60;58.10;;;;;;5103647;28;19908;-71
2022/01/04 09:02:59;;;;;;;;;;;13.60;58.10;;;;;;5103591;28;19906;-70
2022/01/04 09:05:25;;;;;;;;;;;13.60;58.10;;;;;;5103563;28;19907;-70
2022/01/04 09:07:50;;;;;;;;;;;13.60;58.10;;;;;;5103526;28;20108;-71
2022/01/04 09:10:17;;;;;;;;;;;13.60;58.10;;;;;;5103448;28;19916;-70
2022/01/04 09:12:53;;;;;;;;;;;13.60;58.10;;;;;;5103452;28;19900;-71
2022/01/04 09:15:32;;;;;;;;;;;13.60;58.00;;;;;;5103360;28;19912;-70
2022/01/04 09:20:45;;;;;;;;;;;13.60;58.10;;;;;;5103334;28;19907;-71
2022/01/04 09:23:12;;;;;;;;;;;13.60;58.10;;;;;;5103240;28;19954;-71
2022/01/04 09:25:38;;;;;;;;;;;13.70;58.10;;;;;;5103242;28;19900;-71
2022/01/04 09:28:03;;;;;;;;;;;13.70;58.10;;;;;;5103177;28;20200;-71
2022/01/04 09:30:29;;;;;;;;;;;13.70;58.10;;;;;;5103046;28;19900;-70
2022/01/04 09:32:55;;;;;;;;;;;13.70;58.10;;;;;;5103053;28;19938;-71
2022/01/04 09:35:20;;;;;;;;;;;13.70;58.10;;;;;;5102943;28;20220;-71
2022/01/04 09:37:46;;;;;;;;;;;13.70;58.20;;;;;;5103026;28;19911;-71
2022/01/04 09:40:12;;;;;;;;;;;13.60;58.10;;;;;;5102904;28;19943;-71
2022/01/04 09:42:38;;;;;;;;;;;13.70;58.10;;;;;;5102914;28;19908;-71
2022/01/04 09:45:05;;;;;;;;;;;13.70;58.10;;;;;;5102748;28;19914;-71
2022/01/04 09:47:31;;;;;;;;;;;13.70;58.10;;;;;;5102814;28;19907;-71
2022/01/04 09:49:58;;;;;;;;;;;13.70;58.10;;;;;;5102771;28;19930;-71
2022/01/04 09:52:24;;;;;;;;;;;13.70;58.20;;;;;;5084512;28;19908;-70
2022/01/04 09:54:51;;;;;;;;;;;13.70;58.10;;;;;;5102477;28;19981;-70
2022/01/04 09:57:17;;;;;;;;;;;13.70;58.20;;;;;;5102687;28;20398;-70
2022/01/04 09:59:43;;;;;;;;;;;13.70;58.20;;;;;;5102552;28;19900;-70
2022/01/04 10:02:18;;;;;;;;;;;13.60;58.20;;;;;;5084400;28;19914;-70
2022/01/04 10:04:44;;;;;;;;;;;13.60;58.20;;;;;;5102474;28;20259;-70
2022/01/04 10:07:10;;;;;;;;;;;13.60;58.20;;;;;;5084332;28;19915;-70
2022/01/04 10:09:35;;;;;;;;;;;13.60;58.20;;;;;;5102308;28;19919;-69
2022/01/04 10:12:01;;;;;;;;;;;13.60;58.20;;;;;;5102363;28;20552;-71
2022/01/04 10:14:31;;;;;;;;;;;13.60;58.30;;;;;;5102328;28;19955;-70
2022/01/04 10:16:58;;;;;;;;;;;13.70;58.30;;;;;;5102319;28;19907;-70
2022/01/04 10:19:30;;;;;;;;;;;13.60;58.30;;;;;;5102205;28;19965;-70
2022/01/04 10:22:08;;;;;;;;;;;13.60;58.20;;;;;;5102162;28;19931;-70
2022/01/04 10:24:34;;;;;;;;;;;13.60;58.10;;;;;;5102175;28;19912;-69
2022/01/04 10:27:19;;;;;;;;;;;13.70;58.20;;;;;;5102151;28;20238;-69
2022/01/04 10:29:45;;;;;;;;;;;13.70;58.10;;;;;;5101826;28;19915;-70
2022/01/04 10:32:11;;;;;;;;;;;13.70;58.10;;;;;;5101941;28;19907;-69
2022/01/04 10:34:49;;;;;;;;;;;13.70;58.00;;;;;;5101939;28;19915;-70
2022/01/04 10:37:36;;;;;;;;;;;13.80;58.00;;;;;;5083657;28;19915;-70
2022/01/04 10:40:08;;;;;;;;;;;13.70;58.00;;;;;;5101799;28;19900;-70
2022/01/04 10:42:33;;;;;;;;;;;13.70;58.10;;;;;;5101720;28;19908;-69
2022/01/04 10:44:59;;;;;;;;;;;13.70;58.10;;;;;;5101748;28;19939;-70
2022/01/04 10:47:26;;;;;;;;;;;13.70;58.10;;;;;;5101682;28;19908;-69
2022/01/04 10:49:52;;;;;;;;;;;13.70;58.70;;;;;;5101590;28;19915;-70
2022/01/04 10:52:22;;;;;;;;;;;13.70;58.20;;;;;;5083430;28;19900;-70
2022/01/04 10:55:07;;;;;;;;;;;13.70;58.20;;;;;;5101505;28;19946;-70
2022/01/04 10:57:34;;;;;;;;;;;13.70;58.30;;;;;;5101402;28;19907;-70
2022/01/04 11:00:16;;;;;;;;;;;13.70;58.30;;;;;;5101429;28;20177;-70
2022/01/04 11:02:42;;;;;;;;;;;13.70;58.20;;;;;;5101368;28;19931;-70
2022/01/04 11:05:13;;;;;;;;;;;13.70;58.20;;;;;;5101342;28;20438;-70
2022/01/04 11:07:58;;;;;;;;;;;13.70;58.30;;;;;;5100680;28;19930;-70
2022/01/04 11:10:24;;;;;;;;;;;13.70;58.30;;;;;;5101129;28;20223;-70
2022/01/04 11:12:50;;;;;;;;;;;13.70;58.30;;;;;;5101196;28;19966;-69
2022/01/04 11:15:17;;;;;;;;;;;13.70;58.30;;;;;;5101102;28;19915;-70
2022/01/04 11:17:42;;;;;;;;;;;13.70;58.30;;;;;;5101071;28;19992;-70
2022/01/04 11:20:08;;;;;;;;;;;13.70;58.30;;;;;;5101074;28;19908;-70
2022/01/04 11:22:35;;;;;;;;;;;13.70;58.30;;;;;;5101115;28;19979;-70
2022/01/04 11:25:01;;;;;;;;;;;13.70;58.30;;;;;;5083328;28;19958;-71
2022/01/04 11:27:28;;;;;;;;;;;13.70;58.30;;;;;;5082675;28;19930;-71
2022/01/04 11:29:58;;;;;;;;;;;13.70;58.30;;;;;;5100865;28;20108;-70
2022/01/04 11:32:24;;;;;;;;;;;13.70;58.30;;;;;;5100807;28;20205;-70
2022/01/04 11:35:07;;;;;;;;;;;13.70;58.30;;;;;;5082549;28;19914;-69
2022/01/04 11:37:32;;;;;;;;;;;13.70;58.40;;;;;;5100740;28;19981;-70
2022/01/04 11:39:58;;;;;;;;;;;13.70;58.40;;;;;;5100651;28;19912;-70
2022/01/04 11:42:44;;;;;;;;;;;13.70;58.40;;;;;;5100599;28;20128;-71
2022/01/04 11:45:10;;;;;;;;;;;13.70;58.40;;;;;;5099971;28;19927;-71
2022/01/04 11:47:37;;;;;;;;;;;13.70;58.40;;;;;;5082411;28;19994;-70
2022/01/04 11:50:10;;;;;;;;;;;13.70;58.40;;;;;;5100531;28;19899;-70
2022/01/04 11:52:40;;;;;;;;;;;13.70;58.40;;;;;;5100477;28;20146;-70
2022/01/04 11:55:26;;;;;;;;;;;13.70;58.40;;;;;;5100448;28;19991;-70
2022/01/04 11:57:54;;;;;;;;;;;13.70;58.40;;;;;;5100027;28;19911;-70
2022/01/04 12:00:23;;;;;;;;;;;13.70;58.40;;;;;;5100435;28;19935;-70
2022/01/04 12:03:04;;;;;;;;;;;13.70;58.40;;;;;;5100377;28;20164;-71
2022/01/04 12:05:30;;;;;;;;;;;13.70;58.30;;;;;;5100271;28;19912;-70
2022/01/04 12:07:57;;;;;;;;;;;13.70;58.40;;;;;;5100303;28;19968;-70
2022/01/04 12:10:23;;;;;;;;;;;13.70;58.40;;;;;;5100118;28;19941;-70
2022/01/04 12:12:55;;;;;;;;;;;13.70;58.30;;;;;;5100231;28;19908;-70
2022/01/04 12:15:32;;;;;;;;;;;13.70;58.30;;;;;;5100177;28;19981;-70
2022/01/04 12:18:01;;;;;;;;;;;13.70;58.30;;;;;;5099440;28;19904;-71
2022/01/04 12:20:41;;;;;;;;;;;13.70;58.40;;;;;;5100003;28;19915;-71
2022/01/04 12:23:25;;;;;;;;;;;13.70;58.40;;;;;;5081919;28;19908;-71
2022/01/04 12:26:03;;;;;;;;;;;13.70;58.40;;;;;;5100043;28;19974;-71
2022/01/04 12:28:36;;;;;;;;;;;13.70;58.50;;;;;;5100056;28;19908;-69
2022/01/04 12:31:17;;;;;;;;;;;13.70;58.40;;;;;;5099895;28;20206;-70
2022/01/04 12:33:47;;;;;;;;;;;13.70;58.30;;;;;;5081690;28;19939;-69
2022/01/04 12:36:26;;;;;;;;;;;13.70;58.30;;;;;;5099948;28;19900;-72
2022/01/04 12:38:56;;;;;;;;;;;13.70;58.30;;;;;;5099873;28;19907;-70
2022/01/04 12:41:22;;;;;;;;;;;13.70;58.30;;;;;;5081739;28;19912;-70
2022/01/04 12:43:50;;;;;;;;;;;13.70;58.30;;;;;;5099890;28;19943;-70
2022/01/04 12:46:44;;;;;;;;;;;13.70;58.30;;;;;;5099899;28;20263;-70
2022/01/04 12:49:11;;;;;;;;;;;13.70;58.30;;;;;;5067347;28;19915;-70
2022/01/04 12:51:44;;;;;;;;;;;13.70;58.30;;;;;;5099809;28;19900;-70
2022/01/04 12:54:11;;;;;;;;;;;13.70;58.40;;;;;;5099667;28;19955;-70
2022/01/04 12:56:42;;;;;;;;;;;13.70;58.40;;;;;;5081546;28;19954;-69
2022/01/04 12:59:08;;;;;;;;;;;13.70;58.30;;;;;;5099347;28;19954;-70
2022/01/04 13:01:33;;;;;;;;;;;13.70;58.30;;;;;;5099706;28;19974;-70
2022/01/04 13:03:59;;;;;;;;;;;13.70;58.40;;;;;;5081552;28;20379;-70
2022/01/04 13:06:26;;;;;;;;;;;13.70;58.40;;;;;;5099613;28;19991;-70
2022/01/04 13:08:53;;;;;;;;;;;13.70;58.40;;;;;;5099326;28;19916;-71
2022/01/04 13:11:18;;;;;;;;;;;13.70;58.40;;;;;;5081451;28;20017;-70
2022/01/04 13:13:52;;;;;;;;;;;13.70;58.40;;;;;;5099420;28;19939;-70
2022/01/04 13:16:18;;;;;;;;;;;13.70;58.40;;;;;;5081363;28;20235;-70
2022/01/04 13:18:43;;;;;;;;;;;13.70;59.10;;;;;;5081339;28;19908;-70
2022/01/04 13:21:09;;;;;;;;;;;13.70;58.40;;;;;;5099508;28;19900;-69
2022/01/04 13:23:41;;;;;;;;;;;13.70;58.40;;;;;;5099423;28;19908;-70
2022/01/04 13:26:11;;;;;;;;;;;13.70;58.40;;;;;;5081328;28;19915;-70
2022/01/04 13:28:37;;;;;;;;;;;13.70;58.40;;;;;;5099445;28;19975;-69
2022/01/04 13:31:03;;;;;;;;;;;13.70;58.40;;;;;;5102295;28;19908;-69
2022/01/04 13:33:29;;;;;;;;;;;13.70;58.40;;;;;;5103166;28;19979;-70
2022/01/04 13:35:56;;;;;;;;;;;13.70;58.30;;;;;;5103118;28;20234;-70
2022/01/04 13:38:23;;;;;;;;;;;13.70;58.40;;;;;;5103077;28;19982;-70
2022/01/04 13:40:50;;;;;;;;;;;13.70;58.40;;;;;;5102969;28;20018;-70
2022/01/04 13:43:26;;;;;;;;;;;13.70;58.30;;;;;;5084755;28;20200;-70
2022/01/04 13:45:52;;;;;;;;;;;13.70;58.30;;;;;;5103028;28;19908;-71
2022/01/04 13:48:28;;;;;;;;;;;13.70;58.40;;;;;;5102926;28;19900;-71
2022/01/04 13:50:54;;;;;;;;;;;13.70;58.50;;;;;;5102803;28;19908;-70
2022/01/04 13:53:21;;;;;;;;;;;13.70;58.50;;;;;;5102764;28;19984;-70
2022/01/04 13:55:59;;;;;;;;;;;13.70;58.50;;;;;;5084653;28;19946;-70
2022/01/04 13:58:41;;;;;;;;;;;13.70;58.50;;;;;;5102684;28;19978;-70
2022/01/04 14:01:10;;;;;;;;;;;13.70;58.50;;;;;;5102668;28;19979;-70
2022/01/04 14:03:36;;;;;;;;;;;13.70;58.50;;;;;;5102515;28;19974;-70
2022/01/04 14:06:01;;;;;;;;;;;13.70;58.60;;;;;;5084253;28;19915;-70
2022/01/04 14:08:45;;;;;;;;;;;13.70;58.50;;;;;;5102363;28;19908;-70
2022/01/04 14:11:11;;;;;;;;;;;13.70;58.50;;;;;;5102446;28;19954;-69
2022/01/04 14:13:37;;;;;;;;;;;13.70;58.40;;;;;;5102364;28;19962;-70
2022/01/04 14:16:07;;;;;;;;;;;13.70;58.40;;;;;;5102322;28;19931;-70
2022/01/04 14:18:32;;;;;;;;;;;13.70;58.40;;;;;;5102169;28;19908;-70
2022/01/04 14:20:58;;;;;;;;;;;13.70;58.30;;;;;;5102228;28;19946;-70
2022/01/04 14:23:30;;;;;;;;;;;13.70;58.30;;;;;;5102160;28;19979;-69
2022/01/04 14:26:03;;;;;;;;;;;13.70;58.30;;;;;;5102200;28;19908;-70